Time;durP1;ratioP1;P1;durP2;ratioP2;P2;SDS_P1;SDS_P2;PMS_P1;PMS_P2;Temp;Humidity;BMP_temperature;BMP_pressure;BME280_temperature;BME280_humidity;BME280_pressure;Samples;Min_cycle;Max_cycle;Signal;HPM_P1;HPM_P2
2022/06/14 00:01:29;;;;;;;;;;;17.30;64.60;;;;;;5090757;28;19983;-70
2022/06/14 00:03:57;;;;;;;;;;;17.30;64.60;;;;;;5104875;28;19916;-70
2022/06/14 00:06:24;;;;;;;;;;;17.20;64.80;;;;;;5102942;28;19963;-70
2022/06/14 00:08:51;;;;;;;;;;;17.20;65.00;;;;;;5103914;28;20607;-70
2022/06/14 00:11:21;;;;;;;;;;;17.20;65.00;;;;;;5101264;28;20743;-70
2022/06/14 00:13:47;;;;;;;;;;;17.10;65.00;;;;;;5095488;28;19961;-70
2022/06/14 00:16:13;;;;;;;;;;;17.20;65.00;;;;;;5106617;28;19916;-70
2022/06/14 00:18:39;;;;;;;;;;;17.10;65.10;;;;;;5099399;27;19923;-69
2022/06/14 00:21:05;;;;;;;;;;;17.10;65.20;;;;;;5093334;28;19920;-70
2022/06/14 00:23:31;;;;;;;;;;;17.10;65.10;;;;;;5100843;28;19919;-69
2022/06/14 00:25:57;;;;;;;;;;;17.10;65.40;;;;;;5105685;28;19920;-70
2022/06/14 00:28:24;;;;;;;;;;;17.00;65.20;;;;;;5100379;28;19916;-70
2022/06/14 00:30:51;;;;;;;;;;;17.00;65.30;;;;;;5106362;28;19920;-70
2022/06/14 00:33:18;;;;;;;;;;;16.90;65.10;;;;;;5102684;28;19915;-70
2022/06/14 00:35:44;;;;;;;;;;;16.90;65.50;;;;;;5106376;28;19916;-70
2022/06/14 00:38:11;;;;;;;;;;;16.90;65.70;;;;;;5100472;28;19940;-70
2022/06/14 00:40:37;;;;;;;;;;;16.80;65.50;;;;;;5095569;28;19916;-70
2022/06/14 00:43:05;;;;;;;;;;;16.90;65.60;;;;;;5104039;28;19953;-70
2022/06/14 00:45:30;;;;;;;;;;;16.80;65.60;;;;;;5100081;28;19951;-70
2022/06/14 00:48:04;;;;;;;;;;;16.80;65.70;;;;;;5102029;28;19963;-69
2022/06/14 00:50:49;;;;;;;;;;;16.80;65.80;;;;;;5104495;28;20384;-70
2022/06/14 00:53:17;;;;;;;;;;;16.80;65.70;;;;;;5093541;28;19912;-70
2022/06/14 00:55:46;;;;;;;;;;;16.70;66.20;;;;;;5105950;28;19911;-69
2022/06/14 00:58:18;;;;;;;;;;;16.70;66.00;;;;;;5104005;28;19912;-69
2022/06/14 01:00:47;;;;;;;;;;;16.70;66.60;;;;;;5105914;28;19926;-70
2022/06/14 01:03:15;;;;;;;;;;;16.60;66.40;;;;;;5104208;28;19916;-69
2022/06/14 01:06:05;;;;;;;;;;;16.60;67.10;;;;;;5097187;28;19923;-70
2022/06/14 01:08:36;;;;;;;;;;;16.60;66.40;;;;;;5101443;28;20015;-70
2022/06/14 01:11:03;;;;;;;;;;;16.60;66.40;;;;;;5105830;28;20283;-70
2022/06/14 01:13:29;;;;;;;;;;;16.60;66.60;;;;;;5104892;28;19918;-69
2022/06/14 01:15:55;;;;;;;;;;;16.60;66.70;;;;;;5084069;28;19987;-69
2022/06/14 01:18:23;;;;;;;;;;;16.60;66.90;;;;;;5100888;28;19955;-70
2022/06/14 01:20:48;;;;;;;;;;;16.50;66.90;;;;;;5093072;28;20686;-70
2022/06/14 01:23:16;;;;;;;;;;;16.50;67.90;;;;;;5105988;28;19916;-69
2022/06/14 01:26:05;;;;;;;;;;;16.40;67.70;;;;;;5101303;28;19911;-69
2022/06/14 01:28:30;;;;;;;;;;;16.40;67.20;;;;;;5086964;28;19963;-69
2022/06/14 01:30:57;;;;;;;;;;;16.40;68.20;;;;;;5097218;28;20578;-70
2022/06/14 01:33:28;;;;;;;;;;;16.30;67.40;;;;;;5105748;28;19962;-70
2022/06/14 01:35:59;;;;;;;;;;;16.30;67.40;;;;;;5107180;27;19920;-69
2022/06/14 01:38:25;;;;;;;;;;;16.30;67.40;;;;;;5091258;28;20427;-69
2022/06/14 01:40:56;;;;;;;;;;;16.30;67.40;;;;;;5093628;28;19927;-69
2022/06/14 01:43:22;;;;;;;;;;;16.20;67.50;;;;;;5105992;28;19954;-69
2022/06/14 01:45:56;;;;;;;;;;;16.20;67.80;;;;;;5104546;27;19998;-69
2022/06/14 01:48:21;;;;;;;;;;;16.20;68.60;;;;;;5112166;27;19916;-69
2022/06/14 01:53:57;;;;;;;;;;;16.20;68.70;;;;;;5099422;28;19919;-69
2022/06/14 01:56:23;;;;;;;;;;;16.20;69.00;;;;;;5115851;27;19938;-69
2022/06/14 01:59:01;;;;;;;;;;;16.20;69.00;;;;;;5109840;28;20371;-69
2022/06/14 02:01:45;;;;;;;;;;;16.20;69.20;;;;;;5104891;28;19926;-69
2022/06/14 02:07:07;;;;;;;;;;;16.10;69.10;;;;;;5109911;28;20040;-69
2022/06/14 02:09:38;;;;;;;;;;;16.10;69.20;;;;;;5094595;27;20015;-69
2022/06/14 02:12:04;;;;;;;;;;;16.00;69.40;;;;;;5100908;28;19941;-69
2022/06/14 02:14:40;;;;;;;;;;;16.00;69.40;;;;;;5110580;27;20396;-69
2022/06/14 02:17:20;;;;;;;;;;;16.00;69.40;;;;;;5109408;27;19957;-69
2022/06/14 02:19:54;;;;;;;;;;;16.00;69.60;;;;;;5107578;27;19954;-69
2022/06/14 02:22:26;;;;;;;;;;;16.00;69.50;;;;;;5109740;27;20396;-69
2022/06/14 02:25:09;;;;;;;;;;;16.00;69.70;;;;;;5111754;27;19907;-68
2022/06/14 02:27:38;;;;;;;;;;;15.90;69.40;;;;;;5107264;28;19923;-69
2022/06/14 02:30:06;;;;;;;;;;;15.90;69.70;;;;;;5104290;28;20342;-69
2022/06/14 02:32:43;;;;;;;;;;;15.90;69.60;;;;;;5109666;27;19915;-69
2022/06/14 02:35:12;;;;;;;;;;;15.90;69.80;;;;;;5110615;28;19918;-70
2022/06/14 02:37:43;;;;;;;;;;;15.90;69.80;;;;;;5108499;27;19926;-68
2022/06/14 02:40:11;;;;;;;;;;;15.90;70.00;;;;;;5094698;27;19923;-70
2022/06/14 02:43:00;;;;;;;;;;;15.90;70.00;;;;;;5094305;28;20391;-69
2022/06/14 02:45:35;;;;;;;;;;;15.80;70.00;;;;;;5078219;27;19954;-69
2022/06/14 02:48:07;;;;;;;;;;;15.80;70.10;;;;;;5108757;27;20012;-69
2022/06/14 02:50:37;;;;;;;;;;;15.80;70.20;;;;;;5105117;27;19926;-69
2022/06/14 02:53:11;;;;;;;;;;;15.80;70.10;;;;;;5109617;27;20006;-70
2022/06/14 02:55:37;;;;;;;;;;;15.70;70.10;;;;;;5104407;27;19951;-69
2022/06/14 02:58:07;;;;;;;;;;;15.70;70.20;;;;;;5106492;28;19955;-69
2022/06/14 03:00:44;;;;;;;;;;;15.70;70.40;;;;;;5105742;28;19916;-69
2022/06/14 03:03:44;;;;;;;;;;;15.70;70.30;;;;;;5104696;28;19915;-69
2022/06/14 03:06:17;;;;;;;;;;;15.70;70.50;;;;;;5094593;28;19915;-69
2022/06/14 03:08:48;;;;;;;;;;;15.70;70.50;;;;;;5105991;28;19916;-69
2022/06/14 03:11:14;;;;;;;;;;;15.60;70.50;;;;;;5092655;28;19993;-69
2022/06/14 03:13:39;;;;;;;;;;;15.70;70.60;;;;;;5106580;28;20025;-70
2022/06/14 03:16:12;;;;;;;;;;;15.60;70.60;;;;;;5101367;28;20016;-69
2022/06/14 03:18:47;;;;;;;;;;;15.60;70.60;;;;;;5095595;28;19918;-69
2022/06/14 03:21:12;;;;;;;;;;;15.60;70.70;;;;;;5102100;28;19916;-69
2022/06/14 03:23:41;;;;;;;;;;;15.60;70.80;;;;;;5106479;28;19918;-69
2022/06/14 03:26:19;;;;;;;;;;;15.60;70.80;;;;;;5106062;28;19908;-69
2022/06/14 03:28:48;;;;;;;;;;;15.60;70.90;;;;;;5105825;28;19920;-69
2022/06/14 03:31:33;;;;;;;;;;;15.50;71.00;;;;;;5094567;28;19960;-69
2022/06/14 03:34:11;;;;;;;;;;;15.50;71.00;;;;;;5099333;28;19947;-69
2022/06/14 03:36:37;;;;;;;;;;;15.50;71.00;;;;;;5099166;28;20022;-69
2022/06/14 03:39:10;;;;;;;;;;;15.50;71.10;;;;;;5104348;28;19998;-70
2022/06/14 03:41:37;;;;;;;;;;;15.50;71.20;;;;;;5105982;28;20528;-69
2022/06/14 03:44:03;;;;;;;;;;;15.50;71.20;;;;;;5092574;28;19973;-69
2022/06/14 03:46:34;;;;;;;;;;;15.40;71.20;;;;;;5104649;28;19915;-69
2022/06/14 03:49:09;;;;;;;;;;;15.40;71.30;;;;;;5100839;28;19923;-69
2022/06/14 03:51:38;;;;;;;;;;;15.40;71.30;;;;;;5101793;28;20494;-69
2022/06/14 03:54:15;;;;;;;;;;;15.40;71.40;;;;;;5106344;28;19923;-69
2022/06/14 03:56:43;;;;;;;;;;;15.40;71.40;;;;;;5101111;28;19916;-69
2022/06/14 03:59:20;;;;;;;;;;;15.40;71.40;;;;;;5105495;28;19919;-69
2022/06/14 04:01:55;;;;;;;;;;;15.40;71.50;;;;;;5104719;27;19981;-69
2022/06/14 04:04:39;;;;;;;;;;;15.40;71.40;;;;;;5104321;28;19912;-69
2022/06/14 04:07:08;;;;;;;;;;;15.40;71.60;;;;;;5100292;28;20428;-69
2022/06/14 04:09:33;;;;;;;;;;;15.30;71.60;;;;;;5106529;28;19943;-69
2022/06/14 04:11:59;;;;;;;;;;;15.30;71.70;;;;;;5104237;27;19946;-69
2022/06/14 04:14:24;;;;;;;;;;;15.30;71.60;;;;;;5104239;28;19924;-69
2022/06/14 04:17:08;;;;;;;;;;;15.30;71.70;;;;;;5095124;28;19915;-69
2022/06/14 04:19:34;;;;;;;;;;;15.30;71.80;;;;;;5102319;28;19922;-69
2022/06/14 04:22:04;;;;;;;;;;;15.30;71.90;;;;;;5101849;28;19920;-69
2022/06/14 04:24:46;;;;;;;;;;;15.30;71.80;;;;;;5102238;28;20360;-69
2022/06/14 04:27:30;;;;;;;;;;;15.30;71.70;;;;;;5102388;28;19920;-69
2022/06/14 04:30:13;;;;;;;;;;;15.30;71.90;;;;;;5096307;28;19908;-69
2022/06/14 04:32:43;;;;;;;;;;;15.30;72.00;;;;;;5095218;28;20733;-69
2022/06/14 04:35:31;;;;;;;;;;;15.30;72.00;;;;;;5104768;28;19915;-69
2022/06/14 04:37:59;;;;;;;;;;;15.30;72.00;;;;;;5103160;28;19949;-69
2022/06/14 04:40:29;;;;;;;;;;;15.20;72.00;;;;;;5095589;28;19923;-69
2022/06/14 04:43:04;;;;;;;;;;;15.20;72.10;;;;;;5099983;28;19915;-69
2022/06/14 04:45:40;;;;;;;;;;;15.20;72.20;;;;;;5096269;28;19919;-69
2022/06/14 04:48:07;;;;;;;;;;;15.20;72.10;;;;;;5102241;28;19961;-69
2022/06/14 04:50:44;;;;;;;;;;;15.20;72.10;;;;;;5094128;28;19920;-69
2022/06/14 04:53:27;;;;;;;;;;;15.20;72.20;;;;;;5093942;28;19919;-69
2022/06/14 04:56:04;;;;;;;;;;;15.20;72.30;;;;;;5093068;28;20598;-70
2022/06/14 04:58:36;;;;;;;;;;;15.20;72.40;;;;;;5101904;28;19912;-69
2022/06/14 05:01:05;;;;;;;;;;;15.20;72.40;;;;;;5091359;28;19916;-69
2022/06/14 05:03:33;;;;;;;;;;;15.20;72.30;;;;;;5102018;28;20799;-69
2022/06/14 05:06:13;;;;;;;;;;;15.20;72.30;;;;;;5096454;28;19912;-69
2022/06/14 05:08:45;;;;;;;;;;;15.20;72.40;;;;;;5102633;28;20594;-69
2022/06/14 05:11:16;;;;;;;;;;;15.20;72.50;;;;;;5089330;28;19918;-69
2022/06/14 05:14:05;;;;;;;;;;;15.20;72.40;;;;;;5096468;28;19916;-69
2022/06/14 05:16:37;;;;;;;;;;;15.20;72.50;;;;;;5092078;28;19940;-69
2022/06/14 05:19:09;;;;;;;;;;;15.20;72.50;;;;;;5082472;28;19916;-69
2022/06/14 05:21:37;;;;;;;;;;;15.20;72.80;;;;;;5084678;28;19926;-69
2022/06/14 05:24:04;;;;;;;;;;;15.20;72.60;;;;;;5089294;28;19922;-70
2022/06/14 05:26:29;;;;;;;;;;;15.20;72.50;;;;;;5100846;28;19920;-69
2022/06/14 05:28:55;;;;;;;;;;;15.20;72.60;;;;;;5093861;28;20379;-69
2022/06/14 05:31:20;;;;;;;;;;;15.20;72.60;;;;;;5094322;28;19912;-69
2022/06/14 05:33:49;;;;;;;;;;;15.20;72.50;;;;;;5103070;28;20411;-69
2022/06/14 05:36:17;;;;;;;;;;;15.20;72.50;;;;;;5089397;28;19927;-70
2022/06/14 05:39:04;;;;;;;;;;;15.20;72.40;;;;;;5090780;28;19929;-69
2022/06/14 05:41:39;;;;;;;;;;;15.20;72.60;;;;;;5098515;28;19972;-69
2022/06/14 05:44:07;;;;;;;;;;;15.20;72.50;;;;;;5102102;28;19915;-69
2022/06/14 05:46:38;;;;;;;;;;;15.20;72.00;;;;;;5102543;28;20573;-69
2022/06/14 05:49:15;;;;;;;;;;;15.20;72.10;;;;;;5105513;28;19916;-69
2022/06/14 05:51:47;;;;;;;;;;;15.20;72.20;;;;;;5084785;28;19928;-69
2022/06/14 05:54:18;;;;;;;;;;;15.20;72.10;;;;;;5100604;28;19961;-69
2022/06/14 05:56:55;;;;;;;;;;;15.20;72.20;;;;;;5101536;28;20553;-69
2022/06/14 05:59:41;;;;;;;;;;;15.20;72.10;;;;;;5105147;28;20348;-70
2022/06/14 06:02:09;;;;;;;;;;;15.20;72.10;;;;;;5089967;28;19917;-69
2022/06/14 06:04:58;;;;;;;;;;;15.20;72.20;;;;;;5104564;28;19985;-69
2022/06/14 06:07:25;;;;;;;;;;;15.20;72.00;;;;;;5085004;28;19923;-69
2022/06/14 06:09:55;;;;;;;;;;;15.30;72.20;;;;;;5088800;28;19912;-70
2022/06/14 06:12:46;;;;;;;;;;;15.30;72.10;;;;;;5101842;28;19970;-70
2022/06/14 06:15:18;;;;;;;;;;;15.30;72.10;;;;;;5093543;28;19919;-70
2022/06/14 06:17:50;;;;;;;;;;;15.30;72.10;;;;;;5107557;28;20007;-70
2022/06/14 06:20:34;;;;;;;;;;;15.30;72.10;;;;;;5099410;28;20320;-69
2022/06/14 06:23:15;;;;;;;;;;;15.30;72.00;;;;;;5085062;28;19959;-69
2022/06/14 06:25:45;;;;;;;;;;;15.30;72.00;;;;;;5091277;28;19964;-69
2022/06/14 06:28:11;;;;;;;;;;;15.30;72.00;;;;;;5100248;28;19912;-69
2022/06/14 06:30:59;;;;;;;;;;;15.40;72.10;;;;;;5100871;28;19981;-70
2022/06/14 06:33:25;;;;;;;;;;;15.40;72.00;;;;;;5107232;28;19923;-70
2022/06/14 06:36:01;;;;;;;;;;;15.40;71.90;;;;;;5098013;28;19916;-69
2022/06/14 06:38:33;;;;;;;;;;;15.40;71.90;;;;;;5101078;28;19927;-70
2022/06/14 06:43:50;;;;;;;;;;;15.50;71.80;;;;;;5101483;28;19976;-69
2022/06/14 06:46:17;;;;;;;;;;;15.50;71.70;;;;;;5115077;27;20723;-70
2022/06/14 06:48:45;;;;;;;;;;;15.60;71.60;;;;;;5106031;28;20621;-70
2022/06/14 06:51:12;;;;;;;;;;;15.60;71.50;;;;;;5099873;28;19919;-70
2022/06/14 06:53:41;;;;;;;;;;;15.60;71.50;;;;;;5092249;28;19916;-70
2022/06/14 06:56:12;;;;;;;;;;;15.70;71.40;;;;;;5087299;28;20316;-69
2022/06/14 06:58:43;;;;;;;;;;;15.70;71.30;;;;;;5101658;28;19925;-70
2022/06/14 07:01:15;;;;;;;;;;;15.70;71.10;;;;;;5100059;28;19922;-69
2022/06/14 07:03:52;;;;;;;;;;;15.70;71.10;;;;;;5100053;28;19915;-70
2022/06/14 07:06:21;;;;;;;;;;;15.80;71.20;;;;;;5099180;28;19947;-71
2022/06/14 07:08:52;;;;;;;;;;;15.80;71.30;;;;;;5094773;28;19939;-70
2022/06/14 07:11:19;;;;;;;;;;;15.80;71.20;;;;;;5106260;28;19936;-70
2022/06/14 07:13:47;;;;;;;;;;;15.90;71.30;;;;;;5095326;28;19999;-70
2022/06/14 07:16:17;;;;;;;;;;;15.90;71.10;;;;;;5102381;28;20347;-70
2022/06/14 07:18:45;;;;;;;;;;;15.90;71.00;;;;;;5103631;28;20650;-70
2022/06/14 07:21:29;;;;;;;;;;;15.90;71.00;;;;;;5101635;28;19916;-70
2022/06/14 07:23:59;;;;;;;;;;;15.90;70.90;;;;;;5093570;28;20018;-70
2022/06/14 07:26:36;;;;;;;;;;;16.00;70.90;;;;;;5094506;27;19962;-70
2022/06/14 07:29:03;;;;;;;;;;;16.00;70.70;;;;;;5092906;28;19916;-69
2022/06/14 07:31:32;;;;;;;;;;;16.10;70.60;;;;;;5107393;28;19912;-70
2022/06/14 07:33:58;;;;;;;;;;;16.10;70.60;;;;;;5105126;28;19920;-70
2022/06/14 07:36:43;;;;;;;;;;;16.20;70.40;;;;;;5107181;28;19969;-70
2022/06/14 07:39:12;;;;;;;;;;;16.20;70.10;;;;;;5102758;28;19961;-70
2022/06/14 07:41:45;;;;;;;;;;;16.30;70.10;;;;;;5092213;28;19923;-70
2022/06/14 07:44:13;;;;;;;;;;;16.40;69.90;;;;;;5097017;28;19943;-70
2022/06/14 07:46:58;;;;;;;;;;;16.40;69.80;;;;;;5098768;28;19942;-70
2022/06/14 07:49:46;;;;;;;;;;;16.50;69.70;;;;;;5105314;28;20719;-70
2022/06/14 07:52:24;;;;;;;;;;;16.50;69.60;;;;;;5104276;28;19920;-70
2022/06/14 07:54:52;;;;;;;;;;;16.60;69.60;;;;;;5103585;28;20051;-70
2022/06/14 07:57:21;;;;;;;;;;;16.70;69.50;;;;;;5086965;28;19934;-70
2022/06/14 07:59:51;;;;;;;;;;;16.70;69.50;;;;;;5116410;27;20599;-70
2022/06/14 08:02:25;;;;;;;;;;;16.70;69.30;;;;;;5094600;28;20371;-70
2022/06/14 08:04:53;;;;;;;;;;;16.70;69.40;;;;;;5104709;28;19923;-70
2022/06/14 08:07:19;;;;;;;;;;;16.80;69.30;;;;;;5105201;28;19964;-70
2022/06/14 08:09:45;;;;;;;;;;;16.80;69.40;;;;;;5097080;28;19916;-70
2022/06/14 08:12:15;;;;;;;;;;;16.70;69.40;;;;;;5104796;28;19961;-70
2022/06/14 08:14:43;;;;;;;;;;;16.70;69.50;;;;;;5105292;28;20391;-72
2022/06/14 08:17:12;;;;;;;;;;;16.70;70.20;;;;;;5098103;28;19908;-70
2022/06/14 08:19:44;;;;;;;;;;;16.80;69.60;;;;;;5101498;28;19988;-70
2022/06/14 08:22:13;;;;;;;;;;;16.70;69.60;;;;;;5103157;28;19919;-70
2022/06/14 08:24:42;;;;;;;;;;;16.80;69.60;;;;;;5106687;28;19916;-70
2022/06/14 08:27:13;;;;;;;;;;;16.80;69.50;;;;;;5088054;28;20028;-70
2022/06/14 08:29:50;;;;;;;;;;;16.90;69.40;;;;;;5100751;28;19916;-70
2022/06/14 08:32:34;;;;;;;;;;;17.00;69.20;;;;;;5101766;28;20409;-70
2022/06/14 08:35:09;;;;;;;;;;;17.00;68.80;;;;;;5106456;28;19915;-70
2022/06/14 08:37:34;;;;;;;;;;;17.20;68.60;;;;;;5100414;28;19912;-70
2022/06/14 08:40:23;;;;;;;;;;;17.30;68.30;;;;;;5094098;28;19919;-70
2022/06/14 08:42:52;;;;;;;;;;;17.40;68.10;;;;;;5095977;28;20452;-70
2022/06/14 08:45:35;;;;;;;;;;;17.50;67.80;;;;;;5085429;28;20606;-70
2022/06/14 08:48:05;;;;;;;;;;;17.50;67.60;;;;;;5096625;28;20459;-71
2022/06/14 08:51:12;;;;;;;;;;;17.60;67.40;;;;;;5103124;28;19951;-69
2022/06/14 08:53:46;;;;;;;;;;;17.50;67.50;;;;;;5035137;28;19944;-70
2022/06/14 08:56:17;;;;;;;;;;;17.50;67.80;;;;;;5041721;28;19909;-70
2022/06/14 08:59:01;;;;;;;;;;;17.40;67.90;;;;;;5058102;28;19924;-70
2022/06/14 09:01:44;;;;;;;;;;;17.40;68.00;;;;;;5090071;28;20349;-70
2022/06/14 09:04:28;;;;;;;;;;;17.40;68.10;;;;;;5093958;28;19912;-70
2022/06/14 09:07:00;;;;;;;;;;;17.40;68.20;;;;;;5094954;28;20352;-71
2022/06/14 09:09:31;;;;;;;;;;;17.30;68.20;;;;;;5101104;28;19947;-70
2022/06/14 09:12:00;;;;;;;;;;;17.40;68.40;;;;;;5104602;28;19941;-71
2022/06/14 09:14:36;;;;;;;;;;;17.40;68.20;;;;;;5103997;28;19955;-70
2022/06/14 09:17:17;;;;;;;;;;;17.50;67.80;;;;;;5110491;27;19923;-71
2022/06/14 09:20:03;;;;;;;;;;;17.60;67.60;;;;;;5089468;28;19958;-70
2022/06/14 09:22:31;;;;;;;;;;;17.70;67.40;;;;;;5090486;28;19916;-70
2022/06/14 09:24:57;;;;;;;;;;;17.80;67.30;;;;;;5103887;28;20360;-70
2022/06/14 09:27:22;;;;;;;;;;;17.80;67.00;;;;;;5104576;28;19919;-70
2022/06/14 09:29:48;;;;;;;;;;;17.90;66.80;;;;;;5084928;28;20011;-71
2022/06/14 09:32:31;;;;;;;;;;;18.00;66.70;;;;;;5095491;28;20396;-70
2022/06/14 09:35:25;;;;;;;;;;;18.10;66.40;;;;;;5101173;28;19943;-70
2022/06/14 09:38:22;;;;;;;;;;;18.10;66.50;;;;;;5103994;28;19993;-70
2022/06/14 09:41:07;;;;;;;;;;;18.20;66.30;;;;;;5066873;28;20458;-71
2022/06/14 09:43:52;;;;;;;;;;;18.30;65.80;;;;;;5093429;28;19920;-70
2022/06/14 09:46:32;;;;;;;;;;;18.30;65.80;;;;;;5097618;28;19985;-71
2022/06/14 09:49:13;;;;;;;;;;;18.30;66.00;;;;;;5096210;28;19920;-71
2022/06/14 09:51:38;;;;;;;;;;;18.20;66.10;;;;;;5104195;28;19920;-71
2022/06/14 09:54:22;;;;;;;;;;;18.20;66.30;;;;;;5101196;28;19919;-71
2022/06/14 09:56:54;;;;;;;;;;;18.20;66.40;;;;;;5091127;28;19961;-70
2022/06/14 09:59:33;;;;;;;;;;;18.20;66.40;;;;;;5102786;28;20356;-70
2022/06/14 10:02:17;;;;;;;;;;;18.30;66.40;;;;;;5100437;28;20003;-70
2022/06/14 10:05:01;;;;;;;;;;;18.50;66.10;;;;;;5097975;28;19929;-71
2022/06/14 10:07:27;;;;;;;;;;;18.50;65.70;;;;;;5104948;28;20398;-70
2022/06/14 10:10:00;;;;;;;;;;;18.70;65.70;;;;;;5105338;28;19916;-71
2022/06/14 10:12:36;;;;;;;;;;;18.70;65.40;;;;;;5120456;27;19916;-71
2022/06/14 10:15:18;;;;;;;;;;;18.80;65.20;;;;;;5106351;28;19916;-71
2022/06/14 10:17:59;;;;;;;;;;;18.90;65.10;;;;;;5100182;28;19920;-71
2022/06/14 10:20:43;;;;;;;;;;;18.90;65.30;;;;;;5102903;28;19922;-71
2022/06/14 10:23:24;;;;;;;;;;;19.00;65.70;;;;;;5106558;28;20669;-71
2022/06/14 10:29:00;;;;;;;;;;;19.00;65.10;;;;;;5101443;28;20012;-71
2022/06/14 10:31:26;;;;;;;;;;;19.10;65.00;;;;;;5100784;28;19958;-71
2022/06/14 10:33:54;;;;;;;;;;;19.20;64.80;;;;;;5099642;28;19978;-71
2022/06/14 10:36:26;;;;;;;;;;;19.30;64.60;;;;;;5100634;28;19965;-72
2022/06/14 10:39:00;;;;;;;;;;;19.40;64.40;;;;;;5101240;28;19916;-71
2022/06/14 10:41:38;;;;;;;;;;;19.50;64.30;;;;;;5103539;28;20516;-71
2022/06/14 10:44:09;;;;;;;;;;;19.50;64.20;;;;;;5108804;27;20307;-71
2022/06/14 10:46:39;;;;;;;;;;;19.60;64.30;;;;;;5104607;28;20429;-71
2022/06/14 10:49:24;;;;;;;;;;;19.70;64.10;;;;;;5107348;28;20008;-71
2022/06/14 10:51:58;;;;;;;;;;;19.80;64.00;;;;;;5098507;28;20136;-71
2022/06/14 10:54:43;;;;;;;;;;;19.90;63.90;;;;;;5107451;28;19968;-71
2022/06/14 10:57:08;;;;;;;;;;;20.00;63.70;;;;;;5101716;28;19959;-71
2022/06/14 10:59:37;;;;;;;;;;;20.10;63.70;;;;;;5105558;28;19959;-71
2022/06/14 11:02:27;;;;;;;;;;;20.20;63.70;;;;;;5101004;28;19920;-71
2022/06/14 11:05:02;;;;;;;;;;;20.30;63.50;;;;;;5093017;28;20026;-72
2022/06/14 11:07:34;;;;;;;;;;;20.40;63.40;;;;;;5104739;27;19955;-72
2022/06/14 11:10:03;;;;;;;;;;;20.50;63.50;;;;;;5105410;28;20033;-72
2022/06/14 11:12:37;;;;;;;;;;;20.60;63.50;;;;;;5103843;28;19968;-72
2022/06/14 11:15:03;;;;;;;;;;;20.70;63.30;;;;;;5108118;28;19984;-72
2022/06/14 11:17:37;;;;;;;;;;;20.80;63.40;;;;;;5097412;28;19924;-72
2022/06/14 11:20:21;;;;;;;;;;;20.90;63.50;;;;;;5100695;28;19912;-72
2022/06/14 11:22:46;;;;;;;;;;;20.90;63.40;;;;;;5090138;28;19919;-72
2022/06/14 11:25:22;;;;;;;;;;;21.00;63.40;;;;;;5107780;28;20573;-72
2022/06/14 11:27:57;;;;;;;;;;;21.10;63.30;;;;;;5097879;28;20331;-72
2022/06/14 11:30:41;;;;;;;;;;;21.20;63.10;;;;;;5107984;28;19915;-72
2022/06/14 11:33:06;;;;;;;;;;;21.20;63.10;;;;;;5118456;27;19923;-71
2022/06/14 11:35:50;;;;;;;;;;;21.30;63.10;;;;;;5107823;28;20027;-72
2022/06/14 11:38:22;;;;;;;;;;;21.40;63.20;;;;;;5088424;28;19923;-72
2022/06/14 11:40:49;;;;;;;;;;;21.50;63.20;;;;;;5105821;28;20037;-72
2022/06/14 11:43:24;;;;;;;;;;;21.60;62.70;;;;;;5094371;28;19926;-73
2022/06/14 11:46:06;;;;;;;;;;;21.60;62.90;;;;;;5107294;28;19927;-72
2022/06/14 11:48:52;;;;;;;;;;;21.70;62.90;;;;;;5101185;28;20541;-72
2022/06/14 11:51:29;;;;;;;;;;;21.80;62.80;;;;;;5103496;28;20028;-72
2022/06/14 11:53:54;;;;;;;;;;;21.90;63.00;;;;;;5099189;28;19973;-72
2022/06/14 11:56:27;;;;;;;;;;;21.90;62.60;;;;;;5106584;28;19919;-72
2022/06/14 11:59:14;;;;;;;;;;;21.90;62.40;;;;;;5101218;28;19970;-72
2022/06/14 12:01:58;;;;;;;;;;;22.10;62.40;;;;;;5109986;27;20465;-72
2022/06/14 12:04:26;;;;;;;;;;;22.10;62.40;;;;;;5103001;27;20405;-73
2022/06/14 12:07:04;;;;;;;;;;;22.20;62.30;;;;;;5087778;28;20390;-72
2022/06/14 12:09:32;;;;;;;;;;;22.30;62.40;;;;;;5101743;28;20600;-72
2022/06/14 12:12:14;;;;;;;;;;;22.30;62.50;;;;;;5106051;28;19934;-73
2022/06/14 12:14:52;;;;;;;;;;;22.40;62.40;;;;;;5104246;28;19938;-72
2022/06/14 12:17:36;;;;;;;;;;;22.40;62.00;;;;;;5096523;28;19916;-72
2022/06/14 12:20:10;;;;;;;;;;;22.50;62.30;;;;;;5101893;28;19963;-73
2022/06/14 12:22:42;;;;;;;;;;;22.60;62.30;;;;;;5090231;28;19927;-73
2022/06/14 12:27:57;;;;;;;;;;;22.70;62.20;;;;;;5093656;28;19922;-73
2022/06/14 12:30:24;;;;;;;;;;;22.70;62.10;;;;;;5090967;28;20427;-73
2022/06/14 12:33:03;;;;;;;;;;;22.80;62.30;;;;;;5106337;28;20318;-73
2022/06/14 12:35:30;;;;;;;;;;;22.80;62.10;;;;;;5104234;28;20346;-73
2022/06/14 12:38:02;;;;;;;;;;;22.90;62.10;;;;;;5094841;28;19915;-73
2022/06/14 12:40:27;;;;;;;;;;;23.00;62.10;;;;;;5087753;28;19916;-73
2022/06/14 12:43:13;;;;;;;;;;;23.00;62.20;;;;;;5095191;28;19922;-72
2022/06/14 12:45:41;;;;;;;;;;;23.10;62.20;;;;;;5093158;28;20032;-73
2022/06/14 12:48:27;;;;;;;;;;;23.10;62.10;;;;;;5096881;28;19911;-73
2022/06/14 12:51:22;;;;;;;;;;;23.20;62.10;;;;;;5103260;28;20003;-73
2022/06/14 12:53:50;;;;;;;;;;;23.20;61.90;;;;;;5079244;28;20317;-73
2022/06/14 12:56:22;;;;;;;;;;;23.30;62.00;;;;;;5087984;28;20459;-73
2022/06/14 12:58:50;;;;;;;;;;;23.30;61.90;;;;;;5100726;28;19942;-73
2022/06/14 13:01:34;;;;;;;;;;;23.40;61.90;;;;;;5103033;28;19927;-73
2022/06/14 13:04:04;;;;;;;;;;;23.50;61.70;;;;;;5094307;28;20052;-73
2022/06/14 13:06:43;;;;;;;;;;;23.60;61.30;;;;;;5098095;28;20380;-73
2022/06/14 13:09:19;;;;;;;;;;;23.60;61.40;;;;;;5100314;28;20010;-74
2022/06/14 13:11:46;;;;;;;;;;;23.70;61.70;;;;;;5102351;28;19973;-73
2022/06/14 13:14:22;;;;;;;;;;;23.70;61.40;;;;;;5105204;28;20552;-73
2022/06/14 13:16:56;;;;;;;;;;;23.70;61.40;;;;;;5100687;28;20240;-73
2022/06/14 13:19:34;;;;;;;;;;;23.80;61.40;;;;;;5104691;28;19911;-72
2022/06/14 13:22:12;;;;;;;;;;;23.80;61.40;;;;;;5098850;28;19926;-73
2022/06/14 13:24:40;;;;;;;;;;;23.80;61.40;;;;;;5103763;28;19912;-73
2022/06/14 13:27:19;;;;;;;;;;;23.90;61.40;;;;;;5097679;28;19965;-73
2022/06/14 13:29:54;;;;;;;;;;;23.90;61.20;;;;;;5101784;28;19916;-74
2022/06/14 13:32:38;;;;;;;;;;;23.90;61.20;;;;;;5101521;28;20502;-73
2022/06/14 13:35:19;;;;;;;;;;;24.00;61.00;;;;;;5105249;28;19915;-73
2022/06/14 13:37:47;;;;;;;;;;;24.00;60.70;;;;;;5092681;28;19916;-73
2022/06/14 13:40:13;;;;;;;;;;;24.10;60.80;;;;;;5105969;28;20493;-74
2022/06/14 13:42:41;;;;;;;;;;;24.20;60.70;;;;;;5099822;28;19916;-73
2022/06/14 13:45:22;;;;;;;;;;;24.20;60.40;;;;;;5103960;28;19911;-73
2022/06/14 13:48:08;;;;;;;;;;;24.30;60.40;;;;;;5099483;28;19918;-73
2022/06/14 13:50:33;;;;;;;;;;;24.30;60.20;;;;;;5053203;28;20415;-73
2022/06/14 13:53:05;;;;;;;;;;;24.40;59.80;;;;;;5088055;28;19998;-73
2022/06/14 13:55:36;;;;;;;;;;;24.50;59.60;;;;;;5105155;28;20008;-74
2022/06/14 13:58:10;;;;;;;;;;;24.50;59.60;;;;;;5102447;28;20426;-74
2022/06/14 14:00:42;;;;;;;;;;;24.50;59.60;;;;;;5088041;28;19918;-74
2022/06/14 14:03:11;;;;;;;;;;;24.60;60.10;;;;;;5098366;28;19912;-73
2022/06/14 14:05:40;;;;;;;;;;;24.70;59.50;;;;;;5095804;28;19923;-74
2022/06/14 14:08:14;;;;;;;;;;;24.70;59.30;;;;;;5096880;28;19987;-73
2022/06/14 14:10:53;;;;;;;;;;;24.70;59.10;;;;;;5102624;28;19916;-74
2022/06/14 14:13:24;;;;;;;;;;;24.80;59.20;;;;;;5120693;28;19912;-73
2022/06/14 14:15:54;;;;;;;;;;;24.90;59.10;;;;;;5088670;28;19927;-73
2022/06/14 14:18:25;;;;;;;;;;;24.90;58.90;;;;;;5099780;28;20650;-73
2022/06/14 14:21:11;;;;;;;;;;;25.00;58.70;;;;;;5088339;28;19927;-74
2022/06/14 14:23:40;;;;;;;;;;;25.00;58.50;;;;;;5084999;28;19922;-73
2022/06/14 14:26:25;;;;;;;;;;;25.10;58.60;;;;;;5099779;28;20396;-73
2022/06/14 14:29:13;;;;;;;;;;;25.20;57.20;;;;;;5099089;28;19915;-73
2022/06/14 14:31:38;;;;;;;;;;;25.20;56.80;;;;;;5101954;28;19916;-74
2022/06/14 14:34:10;;;;;;;;;;;25.30;57.00;;;;;;5093709;28;20252;-74
2022/06/14 14:36:44;;;;;;;;;;;25.40;56.50;;;;;;5101078;28;19937;-74
2022/06/14 14:39:11;;;;;;;;;;;25.50;56.10;;;;;;5098865;28;20577;-74
2022/06/14 14:41:42;;;;;;;;;;;25.60;56.50;;;;;;5100465;28;20113;-74
2022/06/14 14:44:21;;;;;;;;;;;25.70;56.60;;;;;;5097810;28;19955;-73
2022/06/14 14:46:58;;;;;;;;;;;25.80;56.00;;;;;;5097302;28;19943;-74
2022/06/14 14:49:25;;;;;;;;;;;25.90;55.70;;;;;;5102273;28;20004;-74
2022/06/14 14:52:06;;;;;;;;;;;26.10;56.00;;;;;;5100038;28;19926;-74
2022/06/14 14:54:43;;;;;;;;;;;26.20;55.40;;;;;;5107505;28;19916;-74
2022/06/14 14:57:13;;;;;;;;;;;26.40;55.00;;;;;;5105002;28;19916;-74
2022/06/14 14:59:47;;;;;;;;;;;26.60;54.80;;;;;;5108771;28;20422;-74
2022/06/14 15:07:44;;;;;;;;;;;27.10;54.00;;;;;;5096905;28;19922;-74
2022/06/14 15:10:17;;;;;;;;;;;27.30;54.10;;;;;;5108563;28;19951;-73
2022/06/14 15:12:43;;;;;;;;;;;27.50;53.50;;;;;;5103994;28;20660;-73